sensor_id;sensor_type;location;lat;lon;timestamp;P1;durP1;ratioP1;P2;durP2;ratioP2
29362;SDS011;16349;53.672;10.014;2023-11-22T00:01:17;2.17;;;1.80;;
29362;SDS011;16349;53.672;10.014;2023-11-22T00:03:44;2.53;;;1.60;;
29362;SDS011;16349;53.672;10.014;2023-11-22T00:06:12;2.27;;;1.67;;
29362;SDS011;16349;53.672;10.014;2023-11-22T00:08:39;3.77;;;1.90;;
29362;SDS011;16349;53.672;10.014;2023-11-22T00:11:07;1.93;;;1.73;;
29362;SDS011;16349;53.672;10.014;2023-11-22T00:13:34;1.90;;;1.30;;
29362;SDS011;16349;53.672;10.014;2023-11-22T00:16:01;2.30;;;1.77;;
29362;SDS011;16349;53.672;10.014;2023-11-22T00:18:28;2.00;;;1.80;;
29362;SDS011;16349;53.672;10.014;2023-11-22T00:20:55;1.80;;;1.70;;
29362;SDS011;16349;53.672;10.014;2023-11-22T00:23:25;1.70;;;1.40;;
29362;SDS011;16349;53.672;10.014;2023-11-22T00:25:55;2.43;;;1.80;;
29362;SDS011;16349;53.672;10.014;2023-11-22T00:28:23;2.07;;;1.90;;
29362;SDS011;16349;53.672;10.014;2023-11-22T00:30:50;2.63;;;2.10;;
29362;SDS011;16349;53.672;10.014;2023-11-22T00:33:17;2.83;;;1.73;;
29362;SDS011;16349;53.672;10.014;2023-11-22T00:35:44;2.60;;;2.40;;
29362;SDS011;16349;53.672;10.014;2023-11-22T00:38:11;4.37;;;2.40;;
29362;SDS011;16349;53.672;10.014;2023-11-22T00:40:40;3.73;;;2.30;;
29362;SDS011;16349;53.672;10.014;2023-11-22T00:43:07;2.53;;;2.07;;
29362;SDS011;16349;53.672;10.014;2023-11-22T00:45:34;4.17;;;2.37;;
29362;SDS011;16349;53.672;10.014;2023-11-22T00:48:01;3.10;;;2.27;;
29362;SDS011;16349;53.672;10.014;2023-11-22T00:50:28;3.27;;;2.10;;
29362;SDS011;16349;53.672;10.014;2023-11-22T00:52:55;2.80;;;2.00;;
29362;SDS011;16349;53.672;10.014;2023-11-22T00:55:22;4.83;;;2.03;;
29362;SDS011;16349;53.672;10.014;2023-11-22T00:57:50;2.50;;;1.90;;
29362;SDS011;16349;53.672;10.014;2023-11-22T01:00:17;4.67;;;2.70;;
29362;SDS011;16349;53.672;10.014;2023-11-22T01:02:44;3.40;;;2.17;;
29362;SDS011;16349;53.672;10.014;2023-11-22T01:05:10;2.07;;;1.80;;
29362;SDS011;16349;53.672;10.014;2023-11-22T01:07:38;3.80;;;2.10;;
29362;SDS011;16349;53.672;10.014;2023-11-22T01:10:05;2.27;;;1.97;;
29362;SDS011;16349;53.672;10.014;2023-11-22T01:12:33;2.97;;;2.20;;
29362;SDS011;16349;53.672;10.014;2023-11-22T01:15:01;3.63;;;2.13;;
29362;SDS011;16349;53.672;10.014;2023-11-22T01:17:29;3.43;;;2.40;;
29362;SDS011;16349;53.672;10.014;2023-11-22T01:19:57;4.17;;;2.43;;
29362;SDS011;16349;53.672;10.014;2023-11-22T01:22:25;2.17;;;1.93;;
29362;SDS011;16349;53.672;10.014;2023-11-22T01:24:52;4.93;;;2.23;;
29362;SDS011;16349;53.672;10.014;2023-11-22T01:27:19;2.33;;;1.57;;
29362;SDS011;16349;53.672;10.014;2023-11-22T01:29:46;3.80;;;2.20;;
29362;SDS011;16349;53.672;10.014;2023-11-22T01:32:14;2.60;;;2.37;;
29362;SDS011;16349;53.672;10.014;2023-11-22T01:34:42;2.97;;;2.07;;
29362;SDS011;16349;53.672;10.014;2023-11-22T01:37:09;2.87;;;2.37;;
29362;SDS011;16349;53.672;10.014;2023-11-22T01:39:38;4.17;;;1.90;;
29362;SDS011;16349;53.672;10.014;2023-11-22T01:42:07;3.67;;;1.90;;
29362;SDS011;16349;53.672;10.014;2023-11-22T01:44:34;5.40;;;1.93;;
29362;SDS011;16349;53.672;10.014;2023-11-22T01:47:01;3.80;;;2.40;;
29362;SDS011;16349;53.672;10.014;2023-11-22T01:49:32;2.37;;;2.13;;
29362;SDS011;16349;53.672;10.014;2023-11-22T01:52:00;9.33;;;2.17;;
29362;SDS011;16349;53.672;10.014;2023-11-22T01:54:29;3.67;;;2.17;;
29362;SDS011;16349;53.672;10.014;2023-11-22T01:56:56;4.43;;;2.37;;
29362;SDS011;16349;53.672;10.014;2023-11-22T01:59:23;3.03;;;2.50;;
29362;SDS011;16349;53.672;10.014;2023-11-22T02:01:51;2.47;;;1.90;;
29362;SDS011;16349;53.672;10.014;2023-11-22T02:04:19;2.57;;;2.13;;
29362;SDS011;16349;53.672;10.014;2023-11-22T02:06:48;2.93;;;2.00;;
29362;SDS011;16349;53.672;10.014;2023-11-22T02:09:15;2.90;;;2.10;;
29362;SDS011;16349;53.672;10.014;2023-11-22T02:11:43;5.00;;;2.20;;
29362;SDS011;16349;53.672;10.014;2023-11-22T02:14:10;4.27;;;2.27;;
29362;SDS011;16349;53.672;10.014;2023-11-22T02:16:37;4.40;;;2.43;;
29362;SDS011;16349;53.672;10.014;2023-11-22T02:19:05;2.57;;;2.33;;
29362;SDS011;16349;53.672;10.014;2023-11-22T02:21:33;3.57;;;2.10;;
29362;SDS011;16349;53.672;10.014;2023-11-22T02:24:01;2.33;;;2.13;;
29362;SDS011;16349;53.672;10.014;2023-11-22T02:26:28;3.00;;;2.10;;
29362;SDS011;16349;53.672;10.014;2023-11-22T02:28:56;2.97;;;2.67;;
29362;SDS011;16349;53.672;10.014;2023-11-22T02:31:24;3.13;;;2.00;;
29362;SDS011;16349;53.672;10.014;2023-11-22T02:33:52;3.23;;;2.10;;
29362;SDS011;16349;53.672;10.014;2023-11-22T02:36:20;6.60;;;2.37;;
29362;SDS011;16349;53.672;10.014;2023-11-22T02:38:47;2.30;;;2.10;;
29362;SDS011;16349;53.672;10.014;2023-11-22T02:41:15;2.40;;;1.83;;
29362;SDS011;16349;53.672;10.014;2023-11-22T02:43:42;2.73;;;1.93;;
29362;SDS011;16349;53.672;10.014;2023-11-22T02:46:08;2.63;;;2.37;;
29362;SDS011;16349;53.672;10.014;2023-11-22T02:48:35;4.37;;;2.10;;
29362;SDS011;16349;53.672;10.014;2023-11-22T02:51:02;3.73;;;2.40;;
29362;SDS011;16349;53.672;10.014;2023-11-22T02:53:31;3.97;;;2.47;;
29362;SDS011;16349;53.672;10.014;2023-11-22T02:55:59;2.50;;;2.17;;
29362;SDS011;16349;53.672;10.014;2023-11-22T02:58:27;2.40;;;1.77;;
29362;SDS011;16349;53.672;10.014;2023-11-22T03:00:54;2.60;;;2.30;;
29362;SDS011;16349;53.672;10.014;2023-11-22T03:03:22;1.97;;;1.83;;
29362;SDS011;16349;53.672;10.014;2023-11-22T03:05:49;3.77;;;2.80;;
29362;SDS011;16349;53.672;10.014;2023-11-22T03:08:16;2.73;;;2.17;;
29362;SDS011;16349;53.672;10.014;2023-11-22T03:10:43;2.83;;;1.90;;
29362;SDS011;16349;53.672;10.014;2023-11-22T03:13:11;2.97;;;2.27;;
29362;SDS011;16349;53.672;10.014;2023-11-22T03:15:39;3.07;;;2.43;;
29362;SDS011;16349;53.672;10.014;2023-11-22T03:18:07;4.13;;;2.23;;
29362;SDS011;16349;53.672;10.014;2023-11-22T03:20:34;2.87;;;1.67;;
29362;SDS011;16349;53.672;10.014;2023-11-22T03:23:02;5.60;;;2.13;;
29362;SDS011;16349;53.672;10.014;2023-11-22T03:25:29;2.23;;;2.03;;
29362;SDS011;16349;53.672;10.014;2023-11-22T03:27:57;2.60;;;2.40;;
29362;SDS011;16349;53.672;10.014;2023-11-22T03:30:24;3.73;;;2.20;;
29362;SDS011;16349;53.672;10.014;2023-11-22T03:32:52;2.47;;;2.10;;
29362;SDS011;16349;53.672;10.014;2023-11-22T03:35:19;2.20;;;2.00;;
29362;SDS011;16349;53.672;10.014;2023-11-22T03:37:46;3.87;;;1.97;;
29362;SDS011;16349;53.672;10.014;2023-11-22T03:40:13;2.80;;;2.10;;
29362;SDS011;16349;53.672;10.014;2023-11-22T03:42:40;2.87;;;2.10;;
29362;SDS011;16349;53.672;10.014;2023-11-22T03:45:08;5.23;;;2.17;;
29362;SDS011;16349;53.672;10.014;2023-11-22T03:47:36;3.63;;;2.00;;
29362;SDS011;16349;53.672;10.014;2023-11-22T03:50:05;3.00;;;2.07;;
29362;SDS011;16349;53.672;10.014;2023-11-22T03:52:33;2.23;;;2.03;;
29362;SDS011;16349;53.672;10.014;2023-11-22T03:54:59;2.50;;;2.30;;
29362;SDS011;16349;53.672;10.014;2023-11-22T03:57:27;2.17;;;1.97;;
29362;SDS011;16349;53.672;10.014;2023-11-22T03:59:54;2.33;;;2.10;;
29362;SDS011;16349;53.672;10.014;2023-11-22T04:02:21;6.70;;;2.50;;
29362;SDS011;16349;53.672;10.014;2023-11-22T04:04:47;2.17;;;1.83;;
29362;SDS011;16349;53.672;10.014;2023-11-22T04:07:16;4.87;;;2.50;;
29362;SDS011;16349;53.672;10.014;2023-11-22T04:09:44;2.83;;;2.10;;
29362;SDS011;16349;53.672;10.014;2023-11-22T04:12:10;4.33;;;2.10;;
29362;SDS011;16349;53.672;10.014;2023-11-22T04:14:37;2.83;;;2.37;;
29362;SDS011;16349;53.672;10.014;2023-11-22T04:17:04;6.70;;;1.80;;
29362;SDS011;16349;53.672;10.014;2023-11-22T04:19:31;5.13;;;2.70;;
29362;SDS011;16349;53.672;10.014;2023-11-22T04:21:58;3.93;;;2.20;;
29362;SDS011;16349;53.672;10.014;2023-11-22T04:24:26;2.53;;;2.20;;
29362;SDS011;16349;53.672;10.014;2023-11-22T04:26:53;2.70;;;2.50;;
29362;SDS011;16349;53.672;10.014;2023-11-22T04:29:20;5.27;;;2.33;;
29362;SDS011;16349;53.672;10.014;2023-11-22T04:31:47;3.83;;;2.27;;
29362;SDS011;16349;53.672;10.014;2023-11-22T04:34:14;2.87;;;1.73;;
29362;SDS011;16349;53.672;10.014;2023-11-22T04:36:41;4.17;;;2.90;;
29362;SDS011;16349;53.672;10.014;2023-11-22T04:39:07;1.80;;;1.70;;
29362;SDS011;16349;53.672;10.014;2023-11-22T04:41:36;2.37;;;2.10;;
29362;SDS011;16349;53.672;10.014;2023-11-22T04:44:03;2.67;;;2.07;;
29362;SDS011;16349;53.672;10.014;2023-11-22T04:46:30;3.33;;;2.40;;
29362;SDS011;16349;53.672;10.014;2023-11-22T04:48:58;3.07;;;2.53;;
29362;SDS011;16349;53.672;10.014;2023-11-22T04:51:25;2.47;;;2.27;;
29362;SDS011;16349;53.672;10.014;2023-11-22T04:53:54;3.97;;;2.40;;
29362;SDS011;16349;53.672;10.014;2023-11-22T04:56:21;2.47;;;2.27;;
29362;SDS011;16349;53.672;10.014;2023-11-22T04:58:49;3.30;;;1.87;;
29362;SDS011;16349;53.672;10.014;2023-11-22T05:01:16;2.83;;;2.57;;
29362;SDS011;16349;53.672;10.014;2023-11-22T05:03:42;3.50;;;2.17;;
29362;SDS011;16349;53.672;10.014;2023-11-22T05:06:09;2.80;;;1.93;;
29362;SDS011;16349;53.672;10.014;2023-11-22T05:08:36;2.97;;;2.37;;
29362;SDS011;16349;53.672;10.014;2023-11-22T05:11:03;2.37;;;2.10;;
29362;SDS011;16349;53.672;10.014;2023-11-22T05:13:30;2.10;;;1.90;;
29362;SDS011;16349;53.672;10.014;2023-11-22T05:15:58;3.50;;;2.83;;
29362;SDS011;16349;53.672;10.014;2023-11-22T05:18:26;3.47;;;2.07;;
29362;SDS011;16349;53.672;10.014;2023-11-22T05:20:52;3.77;;;2.60;;
29362;SDS011;16349;53.672;10.014;2023-11-22T05:23:19;2.67;;;2.23;;
29362;SDS011;16349;53.672;10.014;2023-11-22T05:25:47;3.67;;;2.20;;
29362;SDS011;16349;53.672;10.014;2023-11-22T05:28:13;2.83;;;2.20;;
29362;SDS011;16349;53.672;10.014;2023-11-22T05:30:40;2.60;;;2.40;;
29362;SDS011;16349;53.672;10.014;2023-11-22T05:33:08;2.87;;;2.30;;
29362;SDS011;16349;53.672;10.014;2023-11-22T05:35:36;3.10;;;2.70;;
29362;SDS011;16349;53.672;10.014;2023-11-22T05:38:03;4.30;;;2.83;;
29362;SDS011;16349;53.672;10.014;2023-11-22T05:40:29;5.20;;;2.73;;
29362;SDS011;16349;53.672;10.014;2023-11-22T05:42:56;3.13;;;2.57;;
29362;SDS011;16349;53.672;10.014;2023-11-22T05:45:23;2.77;;;2.57;;
29362;SDS011;16349;53.672;10.014;2023-11-22T05:47:50;3.87;;;2.37;;
29362;SDS011;16349;53.672;10.014;2023-11-22T05:50:18;3.23;;;2.50;;
29362;SDS011;16349;53.672;10.014;2023-11-22T05:52:45;2.83;;;2.40;;
29362;SDS011;16349;53.672;10.014;2023-11-22T05:55:12;3.33;;;2.30;;
29362;SDS011;16349;53.672;10.014;2023-11-22T05:57:39;3.30;;;2.60;;
29362;SDS011;16349;53.672;10.014;2023-11-22T06:00:07;6.10;;;2.63;;
29362;SDS011;16349;53.672;10.014;2023-11-22T06:02:34;3.73;;;2.50;;
29362;SDS011;16349;53.672;10.014;2023-11-22T06:05:02;2.70;;;2.50;;
29362;SDS011;16349;53.672;10.014;2023-11-22T06:07:32;3.77;;;2.30;;
29362;SDS011;16349;53.672;10.014;2023-11-22T06:09:58;3.13;;;2.60;;
29362;SDS011;16349;53.672;10.014;2023-11-22T06:12:27;3.53;;;2.60;;
29362;SDS011;16349;53.672;10.014;2023-11-22T06:14:53;2.67;;;2.37;;
29362;SDS011;16349;53.672;10.014;2023-11-22T06:17:20;3.57;;;2.50;;
29362;SDS011;16349;53.672;10.014;2023-11-22T06:19:47;5.17;;;2.60;;
29362;SDS011;16349;53.672;10.014;2023-11-22T06:22:14;3.07;;;2.77;;
29362;SDS011;16349;53.672;10.014;2023-11-22T06:24:43;3.23;;;2.43;;
29362;SDS011;16349;53.672;10.014;2023-11-22T06:27:13;4.90;;;2.53;;
29362;SDS011;16349;53.672;10.014;2023-11-22T06:29:40;6.97;;;2.97;;
29362;SDS011;16349;53.672;10.014;2023-11-22T06:32:09;3.27;;;2.93;;
29362;SDS011;16349;53.672;10.014;2023-11-22T06:34:36;5.60;;;3.70;;
29362;SDS011;16349;53.672;10.014;2023-11-22T06:37:03;5.27;;;2.90;;
29362;SDS011;16349;53.672;10.014;2023-11-22T06:39:32;3.83;;;2.97;;
29362;SDS011;16349;53.672;10.014;2023-11-22T06:42:00;4.33;;;3.20;;
29362;SDS011;16349;53.672;10.014;2023-11-22T06:44:27;4.00;;;3.30;;
29362;SDS011;16349;53.672;10.014;2023-11-22T06:46:54;5.20;;;3.77;;
29362;SDS011;16349;53.672;10.014;2023-11-22T06:49:21;4.37;;;3.97;;
29362;SDS011;16349;53.672;10.014;2023-11-22T06:51:48;7.90;;;4.30;;
29362;SDS011;16349;53.672;10.014;2023-11-22T06:54:14;8.53;;;6.13;;
29362;SDS011;16349;53.672;10.014;2023-11-22T06:56:41;4.73;;;4.00;;
29362;SDS011;16349;53.672;10.014;2023-11-22T06:59:09;7.20;;;4.53;;
29362;SDS011;16349;53.672;10.014;2023-11-22T07:01:36;8.07;;;5.20;;
29362;SDS011;16349;53.672;10.014;2023-11-22T07:04:04;4.73;;;4.23;;
29362;SDS011;16349;53.672;10.014;2023-11-22T07:06:32;7.80;;;4.10;;
29362;SDS011;16349;53.672;10.014;2023-11-22T07:08:59;6.17;;;4.30;;
29362;SDS011;16349;53.672;10.014;2023-11-22T07:11:26;5.07;;;4.57;;
29362;SDS011;16349;53.672;10.014;2023-11-22T07:13:55;7.30;;;4.53;;
29362;SDS011;16349;53.672;10.014;2023-11-22T07:16:24;5.27;;;4.30;;
29362;SDS011;16349;53.672;10.014;2023-11-22T07:18:51;5.00;;;4.30;;
29362;SDS011;16349;53.672;10.014;2023-11-22T07:21:18;6.70;;;4.17;;
29362;SDS011;16349;53.672;10.014;2023-11-22T07:23:45;4.90;;;3.77;;
29362;SDS011;16349;53.672;10.014;2023-11-22T07:26:13;4.83;;;3.93;;
29362;SDS011;16349;53.672;10.014;2023-11-22T07:28:40;6.23;;;3.83;;
29362;SDS011;16349;53.672;10.014;2023-11-22T07:31:07;4.60;;;3.83;;
29362;SDS011;16349;53.672;10.014;2023-11-22T07:33:35;5.73;;;4.10;;
29362;SDS011;16349;53.672;10.014;2023-11-22T07:36:04;5.00;;;4.33;;
29362;SDS011;16349;53.672;10.014;2023-11-22T07:38:31;6.47;;;4.40;;
29362;SDS011;16349;53.672;10.014;2023-11-22T07:40:58;5.43;;;4.23;;
29362;SDS011;16349;53.672;10.014;2023-11-22T07:43:25;6.83;;;4.63;;
29362;SDS011;16349;53.672;10.014;2023-11-22T07:45:52;4.70;;;3.87;;
29362;SDS011;16349;53.672;10.014;2023-11-22T07:48:19;4.70;;;4.20;;
29362;SDS011;16349;53.672;10.014;2023-11-22T07:50:49;5.07;;;4.03;;
29362;SDS011;16349;53.672;10.014;2023-11-22T07:53:17;5.00;;;4.33;;
29362;SDS011;16349;53.672;10.014;2023-11-22T07:55:44;8.17;;;4.83;;
29362;SDS011;16349;53.672;10.014;2023-11-22T07:58:10;6.07;;;4.60;;
29362;SDS011;16349;53.672;10.014;2023-11-22T08:00:37;4.30;;;3.83;;
29362;SDS011;16349;53.672;10.014;2023-11-22T08:03:07;5.87;;;3.80;;
29362;SDS011;16349;53.672;10.014;2023-11-22T08:05:34;6.93;;;4.43;;
29362;SDS011;16349;53.672;10.014;2023-11-22T08:08:03;5.87;;;4.57;;
29362;SDS011;16349;53.672;10.014;2023-11-22T08:10:33;7.30;;;4.43;;
29362;SDS011;16349;53.672;10.014;2023-11-22T08:13:00;5.33;;;4.43;;
29362;SDS011;16349;53.672;10.014;2023-11-22T08:15:27;7.13;;;4.93;;
29362;SDS011;16349;53.672;10.014;2023-11-22T08:17:56;6.50;;;4.10;;
29362;SDS011;16349;53.672;10.014;2023-11-22T08:20:23;10.00;;;5.60;;
29362;SDS011;16349;53.672;10.014;2023-11-22T08:22:50;7.50;;;4.77;;
29362;SDS011;16349;53.672;10.014;2023-11-22T08:25:18;6.83;;;5.33;;
29362;SDS011;16349;53.672;10.014;2023-11-22T08:27:45;6.13;;;4.83;;
29362;SDS011;16349;53.672;10.014;2023-11-22T08:30:12;8.63;;;5.20;;
29362;SDS011;16349;53.672;10.014;2023-11-22T08:32:40;5.60;;;5.03;;
29362;SDS011;16349;53.672;10.014;2023-11-22T08:35:08;9.23;;;6.17;;
29362;SDS011;16349;53.672;10.014;2023-11-22T08:37:36;11.27;;;6.63;;
29362;SDS011;16349;53.672;10.014;2023-11-22T08:40:08;7.40;;;5.77;;
29362;SDS011;16349;53.672;10.014;2023-11-22T08:42:37;7.03;;;6.03;;
29362;SDS011;16349;53.672;10.014;2023-11-22T08:45:06;10.90;;;6.17;;
29362;SDS011;16349;53.672;10.014;2023-11-22T08:47:34;7.43;;;5.97;;
29362;SDS011;16349;53.672;10.014;2023-11-22T08:50:01;7.13;;;6.03;;
29362;SDS011;16349;53.672;10.014;2023-11-22T08:52:30;10.13;;;6.73;;
29362;SDS011;16349;53.672;10.014;2023-11-22T08:54:57;7.20;;;5.60;;
29362;SDS011;16349;53.672;10.014;2023-11-22T08:57:25;7.67;;;6.30;;
29362;SDS011;16349;53.672;10.014;2023-11-22T08:59:53;8.33;;;6.77;;
29362;SDS011;16349;53.672;10.014;2023-11-22T09:02:21;8.33;;;5.97;;
29362;SDS011;16349;53.672;10.014;2023-11-22T09:04:48;10.20;;;6.47;;
29362;SDS011;16349;53.672;10.014;2023-11-22T09:07:15;7.43;;;6.07;;
29362;SDS011;16349;53.672;10.014;2023-11-22T09:09:41;8.13;;;6.10;;
29362;SDS011;16349;53.672;10.014;2023-11-22T09:12:08;8.37;;;6.17;;
29362;SDS011;16349;53.672;10.014;2023-11-22T09:14:38;10.47;;;6.00;;
29362;SDS011;16349;53.672;10.014;2023-11-22T09:17:08;7.17;;;5.93;;
29362;SDS011;16349;53.672;10.014;2023-11-22T09:19:35;8.60;;;6.33;;
29362;SDS011;16349;53.672;10.014;2023-11-22T09:22:02;9.73;;;6.40;;
29362;SDS011;16349;53.672;10.014;2023-11-22T09:24:31;8.93;;;6.27;;
29362;SDS011;16349;53.672;10.014;2023-11-22T09:26:58;8.47;;;5.97;;
29362;SDS011;16349;53.672;10.014;2023-11-22T09:29:28;12.50;;;6.13;;
29362;SDS011;16349;53.672;10.014;2023-11-22T09:31:55;7.60;;;6.00;;
29362;SDS011;16349;53.672;10.014;2023-11-22T09:34:23;7.50;;;6.07;;
29362;SDS011;16349;53.672;10.014;2023-11-22T09:36:50;7.03;;;5.80;;
29362;SDS011;16349;53.672;10.014;2023-11-22T09:39:17;8.40;;;5.93;;
29362;SDS011;16349;53.672;10.014;2023-11-22T09:41:46;8.80;;;6.00;;
29362;SDS011;16349;53.672;10.014;2023-11-22T09:44:13;9.10;;;6.63;;
29362;SDS011;16349;53.672;10.014;2023-11-22T09:46:41;10.90;;;6.23;;
29362;SDS011;16349;53.672;10.014;2023-11-22T09:49:10;9.80;;;6.40;;
29362;SDS011;16349;53.672;10.014;2023-11-22T09:51:48;9.07;;;6.80;;
29362;SDS011;16349;53.672;10.014;2023-11-22T09:54:17;10.67;;;7.27;;
29362;SDS011;16349;53.672;10.014;2023-11-22T09:56:45;9.87;;;6.60;;
29362;SDS011;16349;53.672;10.014;2023-11-22T09:59:15;7.40;;;6.17;;
29362;SDS011;16349;53.672;10.014;2023-11-22T10:01:44;10.33;;;6.30;;
29362;SDS011;16349;53.672;10.014;2023-11-22T10:04:11;8.57;;;6.30;;
29362;SDS011;16349;53.672;10.014;2023-11-22T10:06:38;8.77;;;6.33;;
29362;SDS011;16349;53.672;10.014;2023-11-22T10:09:07;12.57;;;6.97;;
29362;SDS011;16349;53.672;10.014;2023-11-22T10:11:34;9.57;;;6.33;;
29362;SDS011;16349;53.672;10.014;2023-11-22T10:14:01;9.80;;;6.50;;
29362;SDS011;16349;53.672;10.014;2023-11-22T10:16:28;11.40;;;7.00;;
29362;SDS011;16349;53.672;10.014;2023-11-22T10:18:55;8.10;;;6.53;;
29362;SDS011;16349;53.672;10.014;2023-11-22T10:21:24;8.83;;;6.27;;
29362;SDS011;16349;53.672;10.014;2023-11-22T10:23:53;16.07;;;7.47;;
29362;SDS011;16349;53.672;10.014;2023-11-22T10:26:22;10.17;;;6.93;;
29362;SDS011;16349;53.672;10.014;2023-11-22T10:28:50;9.47;;;6.73;;
29362;SDS011;16349;53.672;10.014;2023-11-22T10:31:18;9.83;;;6.80;;
29362;SDS011;16349;53.672;10.014;2023-11-22T10:33:45;9.77;;;6.03;;
29362;SDS011;16349;53.672;10.014;2023-11-22T10:36:12;7.10;;;5.70;;
29362;SDS011;16349;53.672;10.014;2023-11-22T10:38:40;7.93;;;5.73;;
29362;SDS011;16349;53.672;10.014;2023-11-22T10:41:08;9.00;;;5.70;;
29362;SDS011;16349;53.672;10.014;2023-11-22T10:43:37;10.23;;;5.83;;
29362;SDS011;16349;53.672;10.014;2023-11-22T10:46:04;6.80;;;5.40;;
29362;SDS011;16349;53.672;10.014;2023-11-22T10:48:31;6.53;;;5.80;;
29362;SDS011;16349;53.672;10.014;2023-11-22T10:51:00;6.00;;;4.87;;
29362;SDS011;16349;53.672;10.014;2023-11-22T10:53:31;8.33;;;5.07;;
29362;SDS011;16349;53.672;10.014;2023-11-22T10:56:02;9.27;;;5.27;;
29362;SDS011;16349;53.672;10.014;2023-11-22T10:58:32;5.50;;;4.70;;
29362;SDS011;16349;53.672;10.014;2023-11-22T11:01:02;5.87;;;4.33;;
29362;SDS011;16349;53.672;10.014;2023-11-22T11:03:32;6.37;;;4.33;;
29362;SDS011;16349;53.672;10.014;2023-11-22T11:06:07;6.47;;;4.47;;
29362;SDS011;16349;53.672;10.014;2023-11-22T11:08:38;4.47;;;4.07;;
29362;SDS011;16349;53.672;10.014;2023-11-22T11:11:08;5.20;;;4.03;;
29362;SDS011;16349;53.672;10.014;2023-11-22T11:13:35;5.40;;;3.37;;
29362;SDS011;16349;53.672;10.014;2023-11-22T11:16:03;5.27;;;3.40;;
29362;SDS011;16349;53.672;10.014;2023-11-22T11:18:31;6.57;;;3.13;;
29362;SDS011;16349;53.672;10.014;2023-11-22T11:20:59;4.37;;;3.27;;
29362;SDS011;16349;53.672;10.014;2023-11-22T11:23:36;5.47;;;3.23;;
29362;SDS011;16349;53.672;10.014;2023-11-22T11:26:09;6.00;;;3.23;;
29362;SDS011;16349;53.672;10.014;2023-11-22T11:28:42;5.70;;;3.47;;
29362;SDS011;16349;53.672;10.014;2023-11-22T11:31:11;4.37;;;2.90;;
29362;SDS011;16349;53.672;10.014;2023-11-22T11:33:55;7.27;;;2.90;;
29362;SDS011;16349;53.672;10.014;2023-11-22T11:36:24;3.20;;;2.90;;
29362;SDS011;16349;53.672;10.014;2023-11-22T11:38:53;4.20;;;2.80;;
29362;SDS011;16349;53.672;10.014;2023-11-22T11:41:24;5.13;;;3.20;;
29362;SDS011;16349;53.672;10.014;2023-11-22T11:43:53;6.20;;;2.73;;
29362;SDS011;16349;53.672;10.014;2023-11-22T11:46:23;2.50;;;2.17;;
29362;SDS011;16349;53.672;10.014;2023-11-22T11:48:51;6.03;;;2.27;;
29362;SDS011;16349;53.672;10.014;2023-11-22T11:51:21;4.67;;;2.70;;
29362;SDS011;16349;53.672;10.014;2023-11-22T11:53:49;4.70;;;2.30;;
29362;SDS011;16349;53.672;10.014;2023-11-22T11:56:16;5.03;;;2.37;;
29362;SDS011;16349;53.672;10.014;2023-11-22T11:58:44;3.00;;;2.47;;
29362;SDS011;16349;53.672;10.014;2023-11-22T12:01:12;5.00;;;2.40;;
29362;SDS011;16349;53.672;10.014;2023-11-22T12:03:40;4.20;;;2.27;;
29362;SDS011;16349;53.672;10.014;2023-11-22T12:06:07;3.47;;;2.40;;
29362;SDS011;16349;53.672;10.014;2023-11-22T12:08:34;2.80;;;1.77;;
29362;SDS011;16349;53.672;10.014;2023-11-22T12:11:02;3.87;;;2.20;;
29362;SDS011;16349;53.672;10.014;2023-11-22T12:13:30;3.27;;;1.90;;
29362;SDS011;16349;53.672;10.014;2023-11-22T12:15:58;2.17;;;1.77;;
29362;SDS011;16349;53.672;10.014;2023-11-22T12:18:27;2.60;;;1.50;;
29362;SDS011;16349;53.672;10.014;2023-11-22T12:20:58;1.87;;;1.60;;
29362;SDS011;16349;53.672;10.014;2023-11-22T12:23:26;3.00;;;1.57;;
29362;SDS011;16349;53.672;10.014;2023-11-22T12:25:54;1.43;;;1.03;;
29362;SDS011;16349;53.672;10.014;2023-11-22T12:28:22;2.47;;;1.40;;
29362;SDS011;16349;53.672;10.014;2023-11-22T12:30:50;4.37;;;1.57;;
29362;SDS011;16349;53.672;10.014;2023-11-22T12:33:17;0.97;;;0.93;;
29362;SDS011;16349;53.672;10.014;2023-11-22T12:35:44;1.77;;;0.90;;
29362;SDS011;16349;53.672;10.014;2023-11-22T12:38:13;1.30;;;0.90;;
29362;SDS011;16349;53.672;10.014;2023-11-22T12:40:43;0.70;;;0.67;;
29362;SDS011;16349;53.672;10.014;2023-11-22T12:43:11;0.87;;;0.70;;
29362;SDS011;16349;53.672;10.014;2023-11-22T12:45:40;0.40;;;0.40;;
29362;SDS011;16349;53.672;10.014;2023-11-22T12:48:24;3.43;;;0.57;;
29362;SDS011;16349;53.672;10.014;2023-11-22T12:50:55;0.93;;;0.70;;
29362;SDS011;16349;53.672;10.014;2023-11-22T12:53:24;0.87;;;0.80;;
29362;SDS011;16349;53.672;10.014;2023-11-22T12:55:53;0.60;;;0.60;;
29362;SDS011;16349;53.672;10.014;2023-11-22T12:58:21;0.43;;;0.43;;
29362;SDS011;16349;53.672;10.014;2023-11-22T13:00:50;0.80;;;0.80;;
29362;SDS011;16349;53.672;10.014;2023-11-22T13:03:23;0.50;;;0.50;;
29362;SDS011;16349;53.672;10.014;2023-11-22T13:05:50;0.40;;;0.40;;
29362;SDS011;16349;53.672;10.014;2023-11-22T13:08:18;1.37;;;0.60;;
29362;SDS011;16349;53.672;10.014;2023-11-22T13:10:48;0.60;;;0.60;;
29362;SDS011;16349;53.672;10.014;2023-11-22T13:13:18;0.97;;;0.70;;
29362;SDS011;16349;53.672;10.014;2023-11-22T13:15:45;0.90;;;0.80;;
29362;SDS011;16349;53.672;10.014;2023-11-22T13:18:12;0.70;;;0.50;;
29362;SDS011;16349;53.672;10.014;2023-11-22T13:20:39;0.63;;;0.50;;
29362;SDS011;16349;53.672;10.014;2023-11-22T13:23:07;0.93;;;0.60;;
29362;SDS011;16349;53.672;10.014;2023-11-22T13:25:35;0.40;;;0.40;;
29362;SDS011;16349;53.672;10.014;2023-11-22T13:28:03;1.00;;;0.60;;
29362;SDS011;16349;53.672;10.014;2023-11-22T13:30:31;0.73;;;0.63;;
29362;SDS011;16349;53.672;10.014;2023-11-22T13:32:58;0.70;;;0.70;;
29362;SDS011;16349;53.672;10.014;2023-11-22T13:35:25;1.80;;;0.83;;
29362;SDS011;16349;53.672;10.014;2023-11-22T13:37:56;0.53;;;0.53;;
29362;SDS011;16349;53.672;10.014;2023-11-22T13:40:23;0.50;;;0.50;;
29362;SDS011;16349;53.672;10.014;2023-11-22T13:42:55;1.17;;;0.50;;
29362;SDS011;16349;53.672;10.014;2023-11-22T13:45:24;0.50;;;0.50;;
29362;SDS011;16349;53.672;10.014;2023-11-22T13:47:52;1.33;;;0.63;;
29362;SDS011;16349;53.672;10.014;2023-11-22T13:50:22;0.80;;;0.70;;
29362;SDS011;16349;53.672;10.014;2023-11-22T13:52:52;0.47;;;0.40;;
29362;SDS011;16349;53.672;10.014;2023-11-22T13:55:20;1.17;;;0.60;;
29362;SDS011;16349;53.672;10.014;2023-11-22T13:57:48;0.97;;;0.70;;
29362;SDS011;16349;53.672;10.014;2023-11-22T14:00:16;0.90;;;0.53;;
29362;SDS011;16349;53.672;10.014;2023-11-22T14:02:46;0.60;;;0.60;;
29362;SDS011;16349;53.672;10.014;2023-11-22T14:05:13;0.80;;;0.80;;
29362;SDS011;16349;53.672;10.014;2023-11-22T14:07:42;0.93;;;0.80;;
29362;SDS011;16349;53.672;10.014;2023-11-22T14:10:09;0.80;;;0.60;;
29362;SDS011;16349;53.672;10.014;2023-11-22T14:12:39;0.87;;;0.77;;
29362;SDS011;16349;53.672;10.014;2023-11-22T14:15:07;5.23;;;0.87;;
29362;SDS011;16349;53.672;10.014;2023-11-22T14:17:36;0.97;;;0.73;;
29362;SDS011;16349;53.672;10.014;2023-11-22T14:20:06;1.57;;;1.20;;
29362;SDS011;16349;53.672;10.014;2023-11-22T14:22:34;0.73;;;0.70;;
29362;SDS011;16349;53.672;10.014;2023-11-22T14:25:02;1.10;;;1.00;;
29362;SDS011;16349;53.672;10.014;2023-11-22T14:27:32;0.90;;;0.90;;
29362;SDS011;16349;53.672;10.014;2023-11-22T14:29:59;0.67;;;0.67;;
29362;SDS011;16349;53.672;10.014;2023-11-22T14:32:30;1.27;;;0.80;;
29362;SDS011;16349;53.672;10.014;2023-11-22T14:34:57;1.73;;;0.93;;
29362;SDS011;16349;53.672;10.014;2023-11-22T14:37:25;1.10;;;1.00;;